createdAt,value
2019-01-23T00:02:18.103Z,91.70
2019-01-23T00:04:46.486Z,91.40
2019-01-23T00:07:14.935Z,91.00
2019-01-23T00:09:43.298Z,91.20
2019-01-23T00:12:11.640Z,91.20
2019-01-23T00:14:40.081Z,91.10
2019-01-23T00:17:08.471Z,91.10
2019-01-23T00:19:36.845Z,91.10
2019-01-23T00:22:05.271Z,91.10
2019-01-23T00:24:33.644Z,91.40
2019-01-23T00:27:02.170Z,91.60
2019-01-23T00:29:30.582Z,91.20
2019-01-23T00:31:58.958Z,91.20
2019-01-23T00:34:27.271Z,91.10
2019-01-23T00:36:55.636Z,91.00
2019-01-23T00:39:24.103Z,91.20
2019-01-23T00:41:52.404Z,91.30
2019-01-23T00:44:20.843Z,91.40
2019-01-23T00:46:49.283Z,91.10
2019-01-23T00:49:17.689Z,91.20
2019-01-23T00:51:46.000Z,91.10
2019-01-23T00:54:14.650Z,91.40
2019-01-23T00:56:43.012Z,91.50
2019-01-23T00:59:11.405Z,91.20
2019-01-23T01:01:39.781Z,91.30
2019-01-23T01:04:08.087Z,91.30
2019-01-23T01:06:36.618Z,91.30
2019-01-23T01:09:07.808Z,91.20
2019-01-23T01:11:36.164Z,91.30
2019-01-23T01:14:04.650Z,91.30
2019-01-23T01:16:33.029Z,91.20
2019-01-23T01:19:01.472Z,91.00
2019-01-23T01:21:29.908Z,91.30
2019-01-23T01:23:58.290Z,91.50
2019-01-23T01:26:26.670Z,91.80
2019-01-23T01:28:56.139Z,91.50
2019-01-23T01:31:24.789Z,91.40
2019-01-23T01:33:53.100Z,91.10
2019-01-23T01:36:22.781Z,91.30
2019-01-23T01:38:51.367Z,91.10
2019-01-23T01:41:19.795Z,91.00
2019-01-23T01:43:48.166Z,91.00
2019-01-23T01:46:16.656Z,90.80
2019-01-23T01:48:45.114Z,90.90
2019-01-23T01:51:13.493Z,90.80
2019-01-23T01:53:41.892Z,90.80
2019-01-23T01:56:10.282Z,90.60
2019-01-23T01:58:38.666Z,90.70
2019-01-23T02:01:06.992Z,90.60
2019-01-23T02:03:35.353Z,90.70
2019-01-23T02:06:03.842Z,90.70
2019-01-23T02:08:32.253Z,90.70
2019-01-23T02:11:00.715Z,90.70
2019-01-23T02:13:29.083Z,90.60
2019-01-23T02:15:57.536Z,90.70
2019-01-23T02:18:25.831Z,90.60
2019-01-23T02:20:54.219Z,90.70
2019-01-23T02:23:22.585Z,90.80
2019-01-23T02:25:51.053Z,91.00
2019-01-23T02:28:19.416Z,90.90
2019-01-23T02:30:47.884Z,90.80
2019-01-23T02:33:16.430Z,90.90
2019-01-23T02:35:44.814Z,90.70
2019-01-23T02:38:13.177Z,90.70
2019-01-23T02:40:41.566Z,90.70
2019-01-23T02:43:09.957Z,90.70
2019-01-23T02:45:38.280Z,90.70
2019-01-23T02:48:06.774Z,90.70
2019-01-23T02:50:35.143Z,90.70
2019-01-23T02:53:03.532Z,90.70
2019-01-23T02:55:32.055Z,90.80
2019-01-23T02:58:00.436Z,91.00
2019-01-23T03:00:28.752Z,90.80
2019-01-23T03:02:57.215Z,90.80
2019-01-23T03:05:25.622Z,90.40
2019-01-23T03:07:54.086Z,90.50
2019-01-23T03:10:22.534Z,90.70
2019-01-23T03:12:50.908Z,90.70
2019-01-23T03:15:19.285Z,90.70
2019-01-23T03:17:47.620Z,90.90
2019-01-23T03:20:17.532Z,90.70
2019-01-23T03:22:46.015Z,90.80
2019-01-23T03:25:15.008Z,90.70
2019-01-23T03:27:43.420Z,90.40
2019-01-23T03:30:15.431Z,90.30
2019-01-23T03:32:43.860Z,90.40
2019-01-23T03:35:12.229Z,90.30
2019-01-23T03:37:40.625Z,90.30
2019-01-23T03:40:14.563Z,90.40
2019-01-23T03:42:42.983Z,90.30
2019-01-23T03:45:13.364Z,90.40
2019-01-23T03:47:41.740Z,90.50
2019-01-23T03:50:12.491Z,91.10
2019-01-23T03:52:40.997Z,90.70
2019-01-23T03:55:10.594Z,90.80
2019-01-23T03:57:38.942Z,90.90
2019-01-23T04:00:10.596Z,90.90
2019-01-23T04:02:39.172Z,90.90
2019-01-23T04:05:09.426Z,91.00
2019-01-23T04:07:37.781Z,91.00
2019-01-23T04:10:09.438Z,90.70
2019-01-23T04:12:37.942Z,90.70
2019-01-23T04:15:08.882Z,90.90
2019-01-23T04:17:37.210Z,90.90
2019-01-23T04:20:08.879Z,90.60
2019-01-23T04:22:37.256Z,90.40
2019-01-23T04:25:07.945Z,90.30
2019-01-23T04:27:36.324Z,90.50
2019-01-23T04:30:13.832Z,90.40
2019-01-23T04:32:42.224Z,90.60
2019-01-23T04:35:10.603Z,90.60
2019-01-23T04:37:38.968Z,90.40
2019-01-23T04:40:09.898Z,90.40
2019-01-23T04:42:38.265Z,90.30
2019-01-23T04:45:09.364Z,90.50
2019-01-23T04:47:37.809Z,90.50
2019-01-23T04:50:09.129Z,90.50
2019-01-23T04:52:39.159Z,90.40
2019-01-23T04:55:08.122Z,90.20
2019-01-23T04:57:36.490Z,90.20
2019-01-23T05:00:08.334Z,90.20
2019-01-23T05:02:36.730Z,90.10
2019-01-23T05:05:07.483Z,90.20
2019-01-23T05:07:35.932Z,90.10
2019-01-23T05:10:06.058Z,90.20
2019-01-23T05:12:34.494Z,90.30
2019-01-23T05:15:02.898Z,90.30
2019-01-23T05:17:31.262Z,90.50
2019-01-23T05:19:59.890Z,90.30
2019-01-23T05:22:28.238Z,90.60
2019-01-23T05:24:56.763Z,90.60
2019-01-23T05:27:26.454Z,90.70
2019-01-23T05:29:55.260Z,90.90
2019-01-23T05:32:23.680Z,90.80
2019-01-23T05:34:52.071Z,90.70
2019-01-23T05:37:20.506Z,91.30
2019-01-23T05:39:48.914Z,91.20
2019-01-23T05:42:17.274Z,91.20
2019-01-23T05:44:45.673Z,91.00
2019-01-23T05:47:14.131Z,91.20
2019-01-23T05:49:42.542Z,91.10
2019-01-23T05:52:11.155Z,91.00
2019-01-23T05:54:39.617Z,91.20
2019-01-23T05:57:08.057Z,91.10
2019-01-23T05:59:36.491Z,90.80
2019-01-23T06:02:05.139Z,90.80
2019-01-23T06:04:33.674Z,91.20
2019-01-23T06:07:02.071Z,91.40
2019-01-23T06:09:30.522Z,91.30
2019-01-23T06:11:59.437Z,91.50
2019-01-23T06:14:27.749Z,91.30
2019-01-23T06:16:56.210Z,91.10
2019-01-23T06:19:24.542Z,91.10
2019-01-23T06:21:53.098Z,90.80
2019-01-23T06:24:21.506Z,91.00
2019-01-23T06:26:49.901Z,91.10
2019-01-23T06:29:18.460Z,91.10
2019-01-23T06:31:46.864Z,91.10
2019-01-23T06:34:15.311Z,91.00
2019-01-23T06:36:43.774Z,91.10
2019-01-23T06:39:12.276Z,91.20
2019-01-23T06:41:40.739Z,90.80
2019-01-23T06:44:09.150Z,90.90
2019-01-23T06:46:37.645Z,91.00
2019-01-23T06:49:06.037Z,90.90
2019-01-23T06:51:34.336Z,90.90
2019-01-23T06:54:02.918Z,90.90
2019-01-23T06:56:31.293Z,91.10
2019-01-23T06:58:59.703Z,91.30
2019-01-23T07:01:28.106Z,91.80
2019-01-23T07:03:56.666Z,91.90
2019-01-23T07:06:25.197Z,91.80
2019-01-23T07:08:55.095Z,92.00
2019-01-23T07:11:23.548Z,92.10
2019-01-23T07:13:51.888Z,91.90
2019-01-23T07:16:20.262Z,92.00
2019-01-23T07:18:48.694Z,92.20
2019-01-23T07:21:17.100Z,92.20
2019-01-23T07:23:45.480Z,92.10
2019-01-23T07:26:13.862Z,92.50
2019-01-23T07:28:42.233Z,92.70
2019-01-23T07:31:10.638Z,92.50
2019-01-23T07:33:39.026Z,92.20
2019-01-23T07:36:07.442Z,92.20
2019-01-23T07:38:35.881Z,92.40
2019-01-23T07:41:04.292Z,92.40
2019-01-23T07:43:32.661Z,92.50
2019-01-23T07:46:01.107Z,92.80
2019-01-23T07:48:29.455Z,92.80
2019-01-23T07:50:57.963Z,92.80
2019-01-23T07:53:26.293Z,92.60
2019-01-23T07:55:54.842Z,92.50
2019-01-23T07:58:23.237Z,92.60
2019-01-23T08:00:51.675Z,92.60
2019-01-23T08:03:21.788Z,92.40
2019-01-23T08:05:50.910Z,92.50
2019-01-23T08:08:19.341Z,92.70
2019-01-23T08:10:47.839Z,92.30
2019-01-23T08:13:16.297Z,92.10
2019-01-23T08:15:44.981Z,91.90
2019-01-23T08:18:13.441Z,91.90
2019-01-23T08:20:41.920Z,92.10
2019-01-23T08:23:10.258Z,92.10
2019-01-23T08:25:38.784Z,91.60
2019-01-23T08:28:07.155Z,91.40
2019-01-23T08:30:39.308Z,91.40
2019-01-23T08:33:05.592Z,91.20
2019-01-23T08:35:34.151Z,90.70
2019-01-23T08:38:02.599Z,91.30
2019-01-23T08:40:30.986Z,91.30
2019-01-23T08:42:59.461Z,91.60
2019-01-23T08:45:27.848Z,91.50
2019-01-23T08:47:56.407Z,91.20
2019-01-23T08:50:30.851Z,91.40
2019-01-23T08:52:59.244Z,91.40
2019-01-23T08:55:27.721Z,91.40
2019-01-23T08:57:56.214Z,91.70
2019-01-23T09:00:24.632Z,91.70
2019-01-23T09:02:52.971Z,91.50
2019-01-23T09:05:21.361Z,91.50
2019-01-23T09:07:49.964Z,91.40
2019-01-23T09:10:26.081Z,91.10
2019-01-23T09:12:54.514Z,91.00
2019-01-23T09:15:22.911Z,90.90
2019-01-23T09:17:51.323Z,91.10
2019-01-23T09:20:22.970Z,91.00
2019-01-23T09:22:51.331Z,90.90
2019-01-23T09:25:24.702Z,90.80
2019-01-23T09:27:53.094Z,90.40
2019-01-23T09:30:30.837Z,90.50
2019-01-23T09:33:20.537Z,90.20
2019-01-23T09:36:13.039Z,90.10
2019-01-23T09:39:08.897Z,90.00
2019-01-23T09:41:52.676Z,90.10
2019-01-23T09:44:24.387Z,90.00
2019-01-23T09:47:19.521Z,90.20
2019-01-23T09:50:06.105Z,90.30
2019-01-23T09:52:49.741Z,90.50
2019-01-23T09:55:18.126Z,90.90
2019-01-23T09:57:46.887Z,90.60
2019-01-23T10:00:23.981Z,90.90
2019-01-23T10:02:52.395Z,90.70
2019-01-23T10:05:20.858Z,90.70
2019-01-23T10:07:49.422Z,90.30
2019-01-23T10:10:20.393Z,90.30
2019-01-23T10:12:48.787Z,90.60
2019-01-23T10:15:26.192Z,90.30
2019-01-23T10:17:54.978Z,90.40
2019-01-23T10:20:23.442Z,90.20
2019-01-23T10:22:52.057Z,90.00
2019-01-23T10:25:20.437Z,90.00
2019-01-23T10:27:48.907Z,90.10
2019-01-23T10:30:17.385Z,90.30
2019-01-23T10:32:46.003Z,90.30
2019-01-23T10:35:17.463Z,90.30
2019-01-23T10:38:05.380Z,90.10
2019-01-23T10:40:33.870Z,90.10
2019-01-23T10:43:02.270Z,90.40
2019-01-23T10:45:30.666Z,90.20
2019-01-23T10:47:59.344Z,90.30
2019-01-23T10:50:27.806Z,90.30
2019-01-23T10:52:56.186Z,90.40
2019-01-23T10:55:24.701Z,90.40
2019-01-23T10:57:53.281Z,90.30
2019-01-23T11:00:23.204Z,89.70
2019-01-23T11:02:51.696Z,90.20
2019-01-23T11:05:22.099Z,90.10
2019-01-23T11:07:50.528Z,89.80
2019-01-23T11:10:21.631Z,90.10
2019-01-23T11:12:50.025Z,90.10
2019-01-23T11:15:18.333Z,90.00
2019-01-23T11:17:46.670Z,90.00
2019-01-23T11:20:17.383Z,90.00
2019-01-23T11:22:45.905Z,89.70
2019-01-23T11:25:15.424Z,89.20
2019-01-23T11:27:54.845Z,88.10
2019-01-23T11:30:25.383Z,88.00
2019-01-23T11:32:54.232Z,88.00
2019-01-23T11:35:22.587Z,88.60
2019-01-23T11:37:51.041Z,88.20
2019-01-23T11:40:22.311Z,88.50
2019-01-23T11:42:50.802Z,88.50
2019-01-23T11:45:19.242Z,88.40
2019-01-23T11:47:48.032Z,88.50
2019-01-23T11:50:21.980Z,88.80
2019-01-23T11:52:51.411Z,88.50
2019-01-23T11:55:21.490Z,88.20
2019-01-23T11:57:49.953Z,88.30
2019-01-23T12:00:24.118Z,88.20
2019-01-23T12:02:55.913Z,87.60
2019-01-23T12:05:24.282Z,87.70
2019-01-23T12:07:52.678Z,87.20
2019-01-23T12:10:24.770Z,87.50
2019-01-23T12:12:53.189Z,87.70
2019-01-23T12:15:23.551Z,87.50
2019-01-23T12:17:52.340Z,86.90
2019-01-23T12:20:20.868Z,86.90
2019-01-23T12:22:49.332Z,86.40
2019-01-23T12:25:17.706Z,86.90
2019-01-23T12:27:46.145Z,86.60
2019-01-23T12:30:20.647Z,86.40
2019-01-23T12:32:49.211Z,86.80
2019-01-23T12:35:17.555Z,87.50
2019-01-23T12:37:45.898Z,87.10
2019-01-23T12:40:15.992Z,88.10
2019-01-23T12:42:44.432Z,88.20
2019-01-23T12:45:18.866Z,87.50
2019-01-23T12:47:47.299Z,87.20
2019-01-23T12:50:18.770Z,87.60
2019-01-23T12:52:47.423Z,86.60
2019-01-23T12:55:15.810Z,86.20
2019-01-23T12:57:44.219Z,86.00
2019-01-23T13:00:19.416Z,85.60
2019-01-23T13:02:47.808Z,85.50
2019-01-23T13:05:18.297Z,86.60
2019-01-23T13:07:46.755Z,87.10
2019-01-23T13:10:17.930Z,86.60
2019-01-23T13:12:46.363Z,86.80
2019-01-23T13:15:17.981Z,86.60
2019-01-23T13:17:46.469Z,86.90
2019-01-23T13:20:16.830Z,86.70
2019-01-23T13:22:45.276Z,86.40
2019-01-23T13:25:15.929Z,85.70
2019-01-23T13:27:44.418Z,85.30
2019-01-23T13:30:15.582Z,85.60
2019-01-23T13:32:43.966Z,85.30
2019-01-23T13:35:15.103Z,84.80
2019-01-23T13:37:43.506Z,85.00
2019-01-23T13:40:20.928Z,85.00
2019-01-23T13:42:49.304Z,84.80
2019-01-23T13:45:17.712Z,85.10
2019-01-23T13:47:46.697Z,84.40
2019-01-23T13:50:15.223Z,84.50
2019-01-23T13:52:43.847Z,84.70
2019-01-23T13:55:15.446Z,84.30
2019-01-23T13:57:43.938Z,84.70
2019-01-23T14:00:18.653Z,84.30
2019-01-23T14:02:47.118Z,85.40
2019-01-23T14:05:15.529Z,84.80
2019-01-23T14:07:44.061Z,84.60
2019-01-23T14:10:17.041Z,84.60
2019-01-23T14:12:45.444Z,84.40
2019-01-23T14:15:17.218Z,85.00
2019-01-23T14:17:45.608Z,84.60
2019-01-23T14:20:15.955Z,85.00
2019-01-23T14:22:44.379Z,84.60
2019-01-23T14:25:15.411Z,84.20
2019-01-23T14:27:43.798Z,83.60
2019-01-23T14:30:18.154Z,83.00
2019-01-23T14:32:46.585Z,82.90
2019-01-23T14:35:15.032Z,83.10
2019-01-23T14:37:43.420Z,83.00
2019-01-23T14:40:12.019Z,82.90
2019-01-23T14:42:40.570Z,83.00
2019-01-23T14:45:12.602Z,82.50
2019-01-23T14:47:41.282Z,83.00
2019-01-23T14:50:15.553Z,82.70
2019-01-23T14:52:44.887Z,82.40
2019-01-23T14:55:13.355Z,82.70
2019-01-23T14:57:41.986Z,82.00
2019-01-23T15:00:19.305Z,82.30
2019-01-23T15:02:47.794Z,82.50
2019-01-23T15:05:16.694Z,81.70
2019-01-23T15:07:45.092Z,82.40
2019-01-23T15:10:21.645Z,82.10
2019-01-23T15:12:50.031Z,82.20
2019-01-23T15:15:18.805Z,81.50
2019-01-23T15:17:47.436Z,82.20
2019-01-23T15:20:21.438Z,82.50
2019-01-23T15:22:50.261Z,81.30
2019-01-23T15:25:18.794Z,84.10
2019-01-23T15:27:47.198Z,80.70
2019-01-23T15:30:21.066Z,80.60
2019-01-23T15:32:49.469Z,81.50
2019-01-23T15:35:18.967Z,80.80
2019-01-23T15:37:47.367Z,81.20
2019-01-23T15:40:21.215Z,81.40
2019-01-23T15:42:49.610Z,81.10
2019-01-23T15:45:17.975Z,80.20
2019-01-23T15:47:47.320Z,79.60
2019-01-23T15:50:18.506Z,79.70
2019-01-23T15:52:47.031Z,80.40
2019-01-23T15:55:17.454Z,80.00
2019-01-23T15:57:45.991Z,79.50
2019-01-23T16:00:23.254Z,80.20
2019-01-23T16:02:51.727Z,79.40
2019-01-23T16:05:20.122Z,78.90
2019-01-23T16:07:48.507Z,79.30
2019-01-23T16:10:22.048Z,78.90
2019-01-23T16:12:50.426Z,79.30
2019-01-23T16:15:21.079Z,78.90
2019-01-23T16:17:49.511Z,79.10
2019-01-23T16:20:17.913Z,79.10
2019-01-23T16:22:46.601Z,78.90
2019-01-23T16:25:16.630Z,78.80
2019-01-23T16:27:45.659Z,78.90
2019-01-23T16:30:22.512Z,79.10
2019-01-23T16:32:50.874Z,79.00
2019-01-23T16:35:19.268Z,79.00
2019-01-23T16:37:47.719Z,79.10
2019-01-23T16:40:16.131Z,79.10
2019-01-23T16:42:44.529Z,79.20
2019-01-23T16:45:16.175Z,80.20
2019-01-23T16:47:45.687Z,81.00
2019-01-23T16:50:16.945Z,81.00
2019-01-23T16:52:45.534Z,80.80
2019-01-23T16:55:13.955Z,80.60
2019-01-23T16:57:42.577Z,80.70
2019-01-23T17:00:14.323Z,80.80
2019-01-23T17:02:42.762Z,81.10
2019-01-23T17:05:14.636Z,81.10
2019-01-23T17:07:43.114Z,80.90
2019-01-23T17:10:14.841Z,80.90
2019-01-23T17:12:43.299Z,80.60
2019-01-23T17:15:12.029Z,81.50
2019-01-23T17:17:40.421Z,80.80
2019-01-23T17:20:20.673Z,81.10
2019-01-23T17:22:49.129Z,81.70
2019-01-23T17:25:17.580Z,81.60
2019-01-23T17:27:46.057Z,81.80
2019-01-23T17:30:19.485Z,82.00
2019-01-23T17:32:47.909Z,82.50
2019-01-23T17:35:18.465Z,82.30
2019-01-23T17:37:46.898Z,82.30
2019-01-23T17:40:18.093Z,82.30
2019-01-23T17:42:46.642Z,82.70
2019-01-23T17:45:36.242Z,82.90
2019-01-23T17:48:06.743Z,83.10
2019-01-23T17:50:35.289Z,84.20
2019-01-23T17:53:03.705Z,83.30
2019-01-23T17:55:35.006Z,83.90
2019-01-23T17:58:03.581Z,84.10
2019-01-23T18:00:33.632Z,83.60
2019-01-23T18:03:02.028Z,83.70
2019-01-23T18:05:30.417Z,83.90
2019-01-23T18:07:58.796Z,85.10
2019-01-23T18:10:27.212Z,84.30
2019-01-23T18:12:55.726Z,84.10
2019-01-23T18:15:29.860Z,84.50
2019-01-23T18:17:58.297Z,84.90
2019-01-23T18:20:28.687Z,84.40
2019-01-23T18:22:57.238Z,85.00
2019-01-23T18:25:25.889Z,85.20
2019-01-23T18:27:54.285Z,84.60
2019-01-23T18:30:32.203Z,84.90
2019-01-23T18:33:01.862Z,84.90
2019-01-23T18:35:55.212Z,84.80
2019-01-23T18:38:29.835Z,84.90
2019-01-23T18:41:04.238Z,84.60
2019-01-23T18:43:47.980Z,85.00
2019-01-23T18:46:46.793Z,85.00
2019-01-23T18:49:35.094Z,84.90
2019-01-23T18:52:11.836Z,85.20
2019-01-23T18:54:41.146Z,85.20
2019-01-23T18:57:18.419Z,84.60
2019-01-23T18:59:46.785Z,84.90
2019-01-23T19:02:15.180Z,84.70
2019-01-23T19:04:43.719Z,84.60
2019-01-23T19:07:12.230Z,84.30
2019-01-23T19:09:41.048Z,84.70
2019-01-23T19:12:09.618Z,84.80
2019-01-23T19:14:38.080Z,84.30
2019-01-23T19:17:06.667Z,83.90
2019-01-23T19:19:35.218Z,84.10
2019-01-23T19:22:03.788Z,84.20
2019-01-23T19:24:47.754Z,84.50
2019-01-23T19:27:23.708Z,84.80
2019-01-23T19:29:53.748Z,84.20
2019-01-23T19:32:22.320Z,84.30
2019-01-23T19:34:50.942Z,84.30
2019-01-23T19:37:19.692Z,84.00
2019-01-23T19:39:50.763Z,84.00
2019-01-23T19:42:19.334Z,84.30
2019-01-23T19:44:47.901Z,83.90
2019-01-23T19:47:16.759Z,83.90
2019-01-23T19:52:35.092Z,84.90
2019-01-23T19:55:05.103Z,84.50
2019-01-23T19:57:33.974Z,84.10
2019-01-23T20:00:06.134Z,84.40
2019-01-23T20:02:36.659Z,84.10
2019-01-23T20:05:09.495Z,84.30
2019-01-23T20:07:39.972Z,83.80
2019-01-23T20:10:14.384Z,83.80
2019-01-23T20:12:43.552Z,84.20
2019-01-23T20:15:15.099Z,84.40
2019-01-23T20:17:44.015Z,83.20
2019-01-23T20:20:16.533Z,83.90
2019-01-23T20:22:45.558Z,84.50
2019-01-23T20:25:19.589Z,84.50
2019-01-23T20:27:48.915Z,84.20
2019-01-23T20:30:30.037Z,84.50
2019-01-23T20:32:58.743Z,84.30
2019-01-23T20:35:28.377Z,84.50
2019-01-23T20:38:00.165Z,83.80
2019-01-23T20:40:30.696Z,84.10
2019-01-23T20:42:59.974Z,84.00
2019-01-23T20:45:29.311Z,83.00
2019-01-23T20:48:02.387Z,83.00
2019-01-23T20:50:32.772Z,82.20
2019-01-23T20:53:03.860Z,81.80
2019-01-23T20:55:35.046Z,82.50
2019-01-23T21:00:33.990Z,81.60
2019-01-23T21:03:03.036Z,83.30
2019-01-23T21:05:31.541Z,83.20
2019-01-23T21:08:02.242Z,83.70
2019-01-23T21:10:32.162Z,83.60
2019-01-23T21:13:01.970Z,82.70
2019-01-23T21:15:31.694Z,82.60
2019-01-23T21:18:00.061Z,82.80
2019-01-23T21:20:30.805Z,82.60
2019-01-23T21:22:59.398Z,82.90
2019-01-23T21:25:27.938Z,82.70
2019-01-23T21:27:56.368Z,81.80
2019-01-23T21:30:26.590Z,82.00
2019-01-23T21:32:55.525Z,81.30
2019-01-23T21:35:24.040Z,82.20
2019-01-23T21:37:53.753Z,82.20
2019-01-23T21:40:24.713Z,81.80
2019-01-23T21:42:53.549Z,81.60
2019-01-23T21:45:21.923Z,81.70
2019-01-23T21:47:51.548Z,81.80
2019-01-23T21:50:22.014Z,82.10
2019-01-23T21:52:50.517Z,81.90
2019-01-23T21:55:22.282Z,81.70
2019-01-23T21:57:51.340Z,82.00
2019-01-23T22:00:25.373Z,81.70
2019-01-23T22:02:54.940Z,81.20
2019-01-23T22:05:23.493Z,81.70
2019-01-23T22:07:51.904Z,81.50
2019-01-23T22:10:21.439Z,81.60
2019-01-23T22:12:49.806Z,82.10
2019-01-23T22:15:26.918Z,81.40
2019-01-23T22:17:55.378Z,81.70
2019-01-23T22:20:24.299Z,81.60
2019-01-23T22:22:52.862Z,81.20
2019-01-23T22:25:23.548Z,81.80
2019-01-23T22:27:52.418Z,81.20
2019-01-23T22:30:28.830Z,81.00
2019-01-23T22:33:02.725Z,80.90
2019-01-23T22:35:33.346Z,81.20
2019-01-23T22:38:06.133Z,81.50
2019-01-23T22:40:36.827Z,81.30
2019-01-23T22:43:05.324Z,81.50
2019-01-23T22:45:33.852Z,81.10
2019-01-23T22:48:03.323Z,81.40
2019-01-23T22:50:31.774Z,81.10
2019-01-23T22:53:00.364Z,81.30
2019-01-23T22:55:28.978Z,81.10
2019-01-23T22:58:00.265Z,81.60
2019-01-23T23:01:01.691Z,81.60
2019-01-23T23:03:34.444Z,81.50
2019-01-23T23:06:03.682Z,81.50
2019-01-23T23:08:32.312Z,81.40
2019-01-23T23:11:00.800Z,81.80
2019-01-23T23:13:29.362Z,81.60
2019-01-23T23:16:00.529Z,81.20
2019-01-23T23:18:29.469Z,81.10
2019-01-23T23:20:58.237Z,81.50
2019-01-23T23:23:33.187Z,81.00
2019-01-23T23:28:53.887Z,81.30
2019-01-23T23:31:49.943Z,81.40
2019-01-23T23:34:20.206Z,81.10
2019-01-23T23:36:49.429Z,80.60
2019-01-23T23:39:17.798Z,80.50
2019-01-23T23:41:46.208Z,80.30
2019-01-23T23:44:19.366Z,80.30
2019-01-23T23:46:47.893Z,81.50
2019-01-23T23:49:16.223Z,81.70
2019-01-23T23:51:47.042Z,81.20
2019-01-23T23:54:15.476Z,81.20
2019-01-23T23:56:43.996Z,80.90
2019-01-23T23:59:12.512Z,81.60
